Time,TemperatureF,DewpointF,PressureIn,WindDirection,WindDirectionDegrees,WindSpeedMPH,WindSpeedGustMPH,Humidity,HourlyPrecipIn,Conditions,Clouds,dailyrainin,SoftwareType,DateUTC
2013-04-10 00:03:00,60.0,41.0,29.90,East,94,0.0,24.0,50,0.00,,,0.00,,2013-04-10 04:03:00,
2013-04-10 00:13:00,60.0,41.0,29.90,East,94,0.0,24.0,50,0.00,,,0.00,,2013-04-10 04:13:00,
2013-04-10 00:23:00,60.0,41.0,29.90,East,95,0.0,1.0,50,0.00,,,0.00,,2013-04-10 04:23:00,
2013-04-10 00:33:00,60.0,42.0,29.90,ENE,59,0.0,2.0,52,0.00,,,0.00,,2013-04-10 04:33:00,
2013-04-10 00:43:00,60.0,42.0,29.90,ENE,59,0.0,2.0,52,0.00,,,0.00,,2013-04-10 04:43:00,
2013-04-10 00:53:00,61.0,41.0,29.89,ENE,58,2.0,5.0,47,0.00,,,0.00,,2013-04-10 04:53:00,
2013-04-10 01:02:00,62.0,41.0,29.88,ENE,61,1.0,5.0,46,0.00,,,0.00,,2013-04-10 05:02:00,
2013-04-10 01:13:00,62.0,40.0,29.87,ENE,71,3.0,5.0,44,0.00,,,0.00,,2013-04-10 05:13:00,
2013-04-10 01:23:00,62.0,40.0,29.87,ENE,71,3.0,5.0,44,0.00,,,0.00,,2013-04-10 05:23:00,
2013-04-10 01:33:00,62.0,43.0,29.86,ENE,72,0.0,5.0,50,0.00,,,0.00,,2013-04-10 05:33:00,
2013-04-10 01:42:00,62.0,43.0,29.86,ENE,72,0.0,5.0,50,0.00,,,0.00,,2013-04-10 05:42:00,
2013-04-10 01:53:00,62.0,40.0,29.86,ESE,103,1.0,5.0,45,0.00,,,0.00,,2013-04-10 05:53:00,
2013-04-10 02:03:00,61.0,41.0,29.86,East,79,5.0,7.0,47,0.00,,,0.00,,2013-04-10 06:03:00,
2013-04-10 02:12:00,59.0,42.0,29.85,ESE,119,7.0,13.0,53,0.00,,,0.00,,2013-04-10 06:12:00,
2013-04-10 02:22:00,59.0,42.0,29.85,ESE,119,7.0,13.0,53,0.00,,,0.00,,2013-04-10 06:22:00,
2013-04-10 02:32:00,55.0,43.0,29.84,ESE,108,3.0,13.0,64,0.00,,,0.00,,2013-04-10 06:32:00,
2013-04-10 02:42:00,55.0,43.0,29.84,ESE,108,3.0,13.0,64,0.00,,,0.00,,2013-04-10 06:42:00,
2013-04-10 02:52:00,55.0,44.0,29.83,SE,132,1.0,13.0,66,0.00,,,0.00,,2013-04-10 06:52:00,
2013-04-10 03:02:00,54.0,44.0,29.82,East,88,3.0,13.0,69,0.00,,,0.00,,2013-04-10 07:02:00,
2013-04-10 03:12:00,54.0,44.0,29.82,East,88,3.0,13.0,69,0.00,,,0.00,,2013-04-10 07:12:00,
2013-04-10 03:22:00,53.0,44.0,29.82,East,80,3.0,13.0,72,0.00,,,0.00,,2013-04-10 07:22:00,
2013-04-10 03:32:00,54.0,44.0,29.87,North,1,6.0,13.0,68,0.00,,,0.00,,2013-04-10 07:32:00,
2013-04-10 03:42:00,54.0,44.0,29.87,North,1,6.0,13.0,68,0.00,,,0.00,,2013-04-10 07:42:00,
2013-04-10 03:52:00,58.0,44.0,29.87,North,0,3.0,13.0,59,0.00,,,0.00,,2013-04-10 07:52:00,
2013-04-10 04:02:00,60.0,44.0,29.86,NNE,17,6.0,13.0,55,0.00,,,0.00,,2013-04-10 08:02:00,
2013-04-10 04:12:00,60.0,44.0,29.86,NNE,17,6.0,13.0,55,0.00,,,0.00,,2013-04-10 08:12:00,
2013-04-10 04:22:00,60.0,44.0,29.86,NNE,25,5.0,13.0,56,0.00,,,0.00,,2013-04-10 08:22:00,
2013-04-10 04:32:00,59.0,47.0,29.87,North,7,6.0,14.0,65,0.00,,,0.00,,2013-04-10 08:32:00,
2013-04-10 04:42:00,59.0,47.0,29.87,North,7,6.0,14.0,65,0.00,,,0.00,,2013-04-10 08:42:00,
2013-04-10 04:52:00,58.0,47.0,29.87,NE,39,2.0,14.0,68,0.00,,,0.00,,2013-04-10 08:52:00,
2013-04-10 05:02:00,57.0,47.0,29.87,ENE,76,5.0,14.0,69,0.00,,,0.00,,2013-04-10 09:02:00,
2013-04-10 05:12:00,57.0,47.0,29.87,NE,50,0.0,14.0,70,0.00,,,0.00,,2013-04-10 09:12:00,
2013-04-10 05:22:00,57.0,47.0,29.87,NE,50,0.0,14.0,70,0.00,,,0.00,,2013-04-10 09:22:00,
2013-04-10 05:32:00,57.0,48.0,29.88,North,0,1.0,14.0,71,0.00,,,0.00,,2013-04-10 09:32:00,
2013-04-10 05:43:00,56.0,47.0,29.88,ENE,72,1.0,14.0,72,0.00,,,0.00,,2013-04-10 09:43:00,
2013-04-10 05:53:00,56.0,47.0,29.88,ENE,72,1.0,14.0,72,0.00,,,0.00,,2013-04-10 09:53:00,
2013-04-10 06:03:00,54.0,47.0,29.88,ESE,115,1.0,14.0,77,0.00,,,0.00,,2013-04-10 10:03:00,
2013-04-10 06:13:00,52.0,46.0,29.89,ESE,123,0.0,14.0,81,0.00,,,0.00,,2013-04-10 10:13:00,
2013-04-10 06:23:00,52.0,46.0,29.89,ESE,123,0.0,14.0,81,0.00,,,0.00,,2013-04-10 10:23:00,
2013-04-10 06:33:00,51.0,46.0,29.90,ESE,123,0.0,14.0,83,0.00,,,0.00,,2013-04-10 10:33:00,
2013-04-10 06:43:00,51.0,46.0,29.90,ESE,123,0.0,14.0,83,0.00,,,0.00,,2013-04-10 10:43:00,
2013-04-10 06:53:00,51.0,46.0,29.90,ESE,123,0.0,14.0,83,0.00,,,0.00,,2013-04-10 10:53:00,
2013-04-10 07:02:00,51.0,47.0,29.91,East,93,1.0,14.0,86,0.00,,,0.00,,2013-04-10 11:02:00,
2013-04-10 07:12:00,51.0,47.0,29.91,East,93,1.0,14.0,86,0.00,,,0.00,,2013-04-10 11:12:00,
2013-04-10 07:22:00,51.0,48.0,29.91,ESE,102,2.0,14.0,88,0.00,,,0.00,,2013-04-10 11:22:00,
2013-04-10 07:32:00,51.0,48.0,29.91,ESE,103,2.0,14.0,88,0.00,,,0.00,,2013-04-10 11:32:00,
2013-04-10 07:42:00,51.0,48.0,29.91,ESE,103,2.0,14.0,88,0.00,,,0.00,,2013-04-10 11:42:00,
2013-04-10 07:53:00,50.0,46.0,29.92,SE,130,3.0,14.0,87,0.00,,,0.00,,2013-04-10 11:53:00,
2013-04-10 08:03:00,51.0,47.0,29.93,ESE,112,2.0,14.0,87,0.00,,,0.00,,2013-04-10 12:03:00,
2013-04-10 08:12:00,51.0,47.0,29.93,ESE,112,2.0,14.0,87,0.00,,,0.00,,2013-04-10 12:12:00,
2013-04-10 08:23:00,52.0,48.0,29.94,East,98,2.0,14.0,86,0.00,,,0.00,,2013-04-10 12:23:00,
2013-04-10 08:33:00,54.0,49.0,29.95,ESE,115,1.0,14.0,82,0.00,,,0.00,,2013-04-10 12:33:00,
2013-04-10 08:42:00,54.0,49.0,29.95,ESE,115,1.0,14.0,82,0.00,,,0.00,,2013-04-10 12:42:00,
2013-04-10 08:52:00,55.0,48.0,29.94,ESE,116,1.0,14.0,76,0.00,,,0.00,,2013-04-10 12:52:00,
2013-04-10 09:02:00,54.0,48.0,29.95,East,93,2.0,14.0,79,0.00,,,0.00,,2013-04-10 13:02:00,
2013-04-10 09:12:00,54.0,48.0,29.95,East,93,2.0,14.0,79,0.00,,,0.00,,2013-04-10 13:12:00,
2013-04-10 09:23:00,54.0,48.0,29.94,East,96,2.0,14.0,79,0.00,,,0.00,,2013-04-10 13:23:00,
2013-04-10 09:32:00,54.0,47.0,29.94,SSW,195,1.0,14.0,77,0.00,,,0.00,,2013-04-10 13:32:00,
2013-04-10 09:43:00,54.0,47.0,29.94,SSW,195,1.0,14.0,77,0.00,,,0.00,,2013-04-10 13:43:00,
2013-04-10 09:53:00,54.0,47.0,29.94,ESE,107,3.0,14.0,78,0.00,,,0.00,,2013-04-10 13:53:00,
2013-04-10 10:02:00,54.0,47.0,29.95,ESE,110,2.0,14.0,77,0.00,,,0.00,,2013-04-10 14:02:00,
2013-04-10 10:12:00,54.0,46.0,29.94,ESE,113,1.0,14.0,75,0.00,,,0.00,,2013-04-10 14:12:00,
2013-04-10 10:22:00,54.0,46.0,29.94,ESE,113,1.0,14.0,75,0.00,,,0.00,,2013-04-10 14:22:00,
2013-04-10 10:33:00,54.0,47.0,29.94,SE,128,2.0,14.0,76,0.00,,,0.00,,2013-04-10 14:33:00,
2013-04-10 10:42:00,55.0,48.0,29.94,ESE,116,5.0,14.0,76,0.00,,,0.00,,2013-04-10 14:42:00,
2013-04-10 10:52:00,55.0,48.0,29.94,ESE,116,5.0,14.0,76,0.00,,,0.00,,2013-04-10 14:52:00,
2013-04-10 11:02:00,55.0,48.0,29.94,East,96,5.0,14.0,76,0.00,,,0.00,,2013-04-10 15:02:00,
2013-04-10 11:12:00,55.0,48.0,29.94,East,96,5.0,14.0,76,0.00,,,0.00,,2013-04-10 15:12:00,
2013-04-10 11:22:00,55.0,48.0,29.94,East,93,5.0,14.0,76,0.00,,,0.00,,2013-04-10 15:22:00,
2013-04-10 11:33:00,56.0,48.0,29.94,ESE,120,2.0,14.0,75,0.00,,,0.00,,2013-04-10 15:33:00,
2013-04-10 11:42:00,56.0,48.0,29.94,ESE,120,2.0,14.0,75,0.00,,,0.00,,2013-04-10 15:42:00,
2013-04-10 11:53:00,58.0,49.0,29.94,East,94,1.0,14.0,72,0.00,,,0.00,,2013-04-10 15:53:00,
2013-04-10 12:03:00,58.0,49.0,29.94,ESE,118,1.0,14.0,71,0.00,,,0.00,,2013-04-10 16:03:00,
2013-04-10 12:13:00,58.0,49.0,29.94,ESE,118,1.0,14.0,71,0.00,,,0.00,,2013-04-10 16:13:00,
2013-04-10 12:23:00,59.0,49.0,29.94,SE,140,1.0,14.0,70,0.00,,,0.00,,2013-04-10 16:23:00,
2013-04-10 12:33:00,60.0,50.0,29.93,SSE,150,2.0,14.0,69,0.00,,,0.00,,2013-04-10 16:33:00,
2013-04-10 12:43:00,60.0,50.0,29.93,SSE,150,2.0,14.0,69,0.00,,,0.00,,2013-04-10 16:43:00,
2013-04-10 12:53:00,59.0,49.0,29.93,ESE,123,1.0,14.0,70,0.00,,,0.00,,2013-04-10 16:53:00,
2013-04-10 13:03:00,59.0,49.0,29.93,ESE,113,3.0,14.0,70,0.00,,,0.00,,2013-04-10 17:03:00,
2013-04-10 13:12:00,57.0,50.0,29.93,South,171,3.0,14.0,76,0.00,,,0.00,,2013-04-10 17:12:00,
2013-04-10 13:22:00,57.0,50.0,29.93,South,171,3.0,14.0,76,0.00,,,0.00,,2013-04-10 17:22:00,
2013-04-10 13:33:00,58.0,50.0,29.93,SE,126,0.0,14.0,74,0.00,,,0.00,,2013-04-10 17:33:00,
2013-04-10 13:43:00,58.0,50.0,29.93,SE,126,0.0,14.0,74,0.00,,,0.00,,2013-04-10 17:43:00,
2013-04-10 13:53:00,60.0,51.0,29.93,ESE,123,5.0,14.0,71,0.00,,,0.00,,2013-04-10 17:53:00,
2013-04-10 14:03:00,59.0,50.0,29.92,ENE,78,6.0,14.0,71,0.00,,,0.00,,2013-04-10 18:03:00,
2013-04-10 14:12:00,59.0,50.0,29.92,ENE,78,6.0,14.0,71,0.00,,,0.00,,2013-04-10 18:12:00,
2013-04-10 14:23:00,57.0,49.0,29.92,ESE,104,7.0,14.0,75,0.00,,,0.00,,2013-04-10 18:23:00,
2013-04-10 14:33:00,59.0,50.0,29.92,ESE,123,3.0,14.0,73,0.00,,,0.00,,2013-04-10 18:33:00,
2013-04-10 14:42:00,59.0,50.0,29.92,ESE,123,3.0,14.0,73,0.00,,,0.00,,2013-04-10 18:42:00,
2013-04-10 14:53:00,59.0,50.0,29.92,East,85,7.0,14.0,72,0.00,,,0.00,,2013-04-10 18:53:00,
2013-04-10 15:03:00,60.0,50.0,29.91,ESE,109,5.0,14.0,69,0.00,,,0.00,,2013-04-10 19:03:00,
2013-04-10 15:12:00,60.0,51.0,29.91,East,90,7.0,14.0,71,0.00,,,0.00,,2013-04-10 19:12:00,
2013-04-10 15:22:00,60.0,51.0,29.91,East,90,7.0,14.0,71,0.00,,,0.00,,2013-04-10 19:22:00,
2013-04-10 15:33:00,61.0,51.0,29.90,ESE,106,6.0,14.0,69,0.00,,,0.00,,2013-04-10 19:33:00,
2013-04-10 15:42:00,62.0,51.0,29.89,East,92,3.0,14.0,68,0.00,,,0.00,,2013-04-10 19:42:00,
2013-04-10 15:53:00,62.0,51.0,29.89,East,92,3.0,14.0,68,0.00,,,0.00,,2013-04-10 19:53:00,
2013-04-10 16:03:00,64.0,53.0,29.88,ESE,122,3.0,14.0,67,0.00,,,0.00,,2013-04-10 20:03:00,
2013-04-10 16:12:00,65.0,53.0,29.86,ESE,103,6.0,14.0,64,0.00,,,0.00,,2013-04-10 20:12:00,
2013-04-10 16:23:00,65.0,53.0,29.86,ESE,103,6.0,14.0,64,0.00,,,0.00,,2013-04-10 20:23:00,
2013-04-10 16:33:00,64.0,52.0,29.87,ESE,118,6.0,14.0,66,0.00,,,0.00,,2013-04-10 20:33:00,
2013-04-10 16:42:00,65.0,53.0,29.87,East,84,5.0,14.0,64,0.00,,,0.00,,2013-04-10 20:42:00,
2013-04-10 16:52:00,65.0,53.0,29.87,East,84,5.0,14.0,64,0.00,,,0.00,,2013-04-10 20:52:00,
2013-04-10 17:03:00,65.0,52.0,29.86,East,100,6.0,14.0,62,0.00,,,0.00,,2013-04-10 21:03:00,
2013-04-10 17:13:00,65.0,52.0,29.85,ESE,114,5.0,14.0,63,0.00,,,0.00,,2013-04-10 21:13:00,
2013-04-10 17:22:00,65.0,52.0,29.85,ESE,114,5.0,14.0,63,0.00,,,0.00,,2013-04-10 21:22:00,
2013-04-10 17:33:00,66.0,53.0,29.84,SE,134,3.0,14.0,62,0.00,,,0.00,,2013-04-10 21:33:00,
2013-04-10 17:43:00,66.0,53.0,29.84,SE,134,3.0,14.0,62,0.00,,,0.00,,2013-04-10 21:43:00,
2013-04-10 17:53:00,65.0,53.0,29.84,SSE,160,1.0,14.0,64,0.00,,,0.00,,2013-04-10 21:53:00,
2013-04-10 18:03:00,60.0,51.0,29.83,SSE,150,0.0,14.0,71,0.00,,,0.00,,2013-04-10 22:03:00,
2013-04-10 18:13:00,61.0,51.0,29.84,SSE,147,0.0,14.0,69,0.00,,,0.00,,2013-04-10 22:13:00,
2013-04-10 18:23:00,61.0,51.0,29.84,SSE,147,0.0,14.0,69,0.00,,,0.00,,2013-04-10 22:23:00,
2013-04-10 18:33:00,62.0,51.0,29.85,SSE,160,0.0,14.0,67,0.00,,,0.00,,2013-04-10 22:33:00,
2013-04-10 18:42:00,62.0,51.0,29.85,SSE,160,0.0,14.0,67,0.00,,,0.00,,2013-04-10 22:42:00,
2013-04-10 18:53:00,62.0,51.0,29.84,ESE,123,0.0,14.0,67,0.00,,,0.00,,2013-04-10 22:53:00,
2013-04-10 19:03:00,60.0,50.0,29.84,SE,140,1.0,14.0,70,0.00,,,0.00,,2013-04-10 23:03:00,
2013-04-10 19:12:00,59.0,50.0,29.85,SE,124,0.0,14.0,71,0.00,,,0.00,,2013-04-10 23:12:00,
2013-04-10 19:22:00,59.0,50.0,29.85,SE,124,0.0,14.0,71,0.00,,,0.00,,2013-04-10 23:22:00,
2013-04-10 19:33:00,57.0,55.0,29.96,WSW,251,3.0,26.0,92,0.13,,,0.13,,2013-04-10 23:33:00,
2013-04-10 19:42:00,57.0,55.0,29.96,WSW,251,3.0,26.0,92,0.13,,,0.13,,2013-04-10 23:42:00,
2013-04-10 19:53:00,57.0,57.0,29.89,South,188,0.0,26.0,100,0.21,,,0.21,,2013-04-10 23:53:00,
2013-04-10 20:02:00,56.0,56.0,29.88,ESE,123,0.0,26.0,100,0.24,,,0.24,,2013-04-11 00:02:00,
2013-04-10 20:13:00,56.0,56.0,29.86,South,171,1.0,26.0,100,0.28,,,0.28,,2013-04-11 00:13:00,
2013-04-10 20:22:00,56.0,56.0,29.86,South,171,1.0,26.0,100,0.28,,,0.28,,2013-04-11 00:22:00,
2013-04-10 20:32:00,54.0,54.0,29.82,East,99,2.0,26.0,100,0.18,,,0.31,,2013-04-11 00:32:00,
2013-04-10 20:42:00,54.0,54.0,29.82,East,99,2.0,26.0,100,0.18,,,0.31,,2013-04-11 00:42:00,
2013-04-10 20:53:00,54.0,54.0,29.82,East,99,2.0,26.0,100,0.18,,,0.31,,2013-04-11 00:53:00,
2013-04-10 21:02:00,54.0,54.0,29.82,East,99,2.0,26.0,100,0.18,,,0.31,,2013-04-11 01:02:00,
2013-04-10 21:12:00,55.0,55.0,29.82,ENE,72,0.0,26.0,100,0.03,,,0.31,,2013-04-11 01:12:00,
2013-04-10 21:22:00,55.0,55.0,29.82,ENE,72,0.0,26.0,100,0.03,,,0.31,,2013-04-11 01:22:00,
2013-04-10 21:32:00,55.0,55.0,29.82,ENE,72,0.0,26.0,100,0.03,,,0.31,,2013-04-11 01:32:00,
2013-04-10 21:42:00,55.0,55.0,29.85,ENE,72,0.0,26.0,100,0.00,,,0.31,,2013-04-11 01:42:00,
2013-04-10 21:52:00,55.0,55.0,29.85,ENE,72,0.0,26.0,100,0.00,,,0.31,,2013-04-11 01:52:00,
2013-04-10 22:03:00,56.0,56.0,29.83,NNE,18,1.0,26.0,100,0.00,,,0.31,,2013-04-11 02:03:00,
2013-04-10 22:12:00,56.0,56.0,29.83,NNE,20,0.0,26.0,100,0.00,,,0.31,,2013-04-11 02:12:00,
2013-04-10 22:22:00,56.0,56.0,29.83,NNE,20,0.0,26.0,100,0.00,,,0.31,,2013-04-11 02:22:00,
2013-04-10 22:32:00,56.0,56.0,29.85,North,349,1.0,26.0,100,0.00,,,0.31,,2013-04-11 02:32:00,
2013-04-10 22:42:00,56.0,56.0,29.85,North,349,1.0,26.0,100,0.00,,,0.31,,2013-04-11 02:42:00,
2013-04-10 22:53:00,57.0,57.0,29.91,NW,319,7.0,26.0,100,0.02,,,0.33,,2013-04-11 02:53:00,
2013-04-10 23:02:00,57.0,57.0,29.90,WNW,287,3.0,26.0,100,0.07,,,0.38,,2013-04-11 03:02:00,
2013-04-10 23:12:00,57.0,57.0,29.90,WNW,287,3.0,26.0,100,0.07,,,0.38,,2013-04-11 03:12:00,
2013-04-10 23:22:00,57.0,57.0,29.90,WNW,287,3.0,26.0,100,0.07,,,0.38,,2013-04-11 03:22:00,
2013-04-10 23:33:00,57.0,57.0,29.87,SSW,198,0.0,26.0,100,0.14,,,0.45,,2013-04-11 03:33:00,
2013-04-10 23:43:00,57.0,57.0,29.88,SSW,198,0.0,26.0,100,0.14,,,0.45,,2013-04-11 03:43:00,
2013-04-10 23:54:00,57.0,57.0,29.88,SSW,198,0.0,26.0,100,0.14,,,0.45,,2013-04-11 03:54:00,